createdAt,value
2017-11-21T00:00:36.057Z,4.5
2017-11-21T00:05:26.161Z,4.5
2017-11-21T00:10:07.648Z,4.4
2017-11-21T00:15:05.872Z,4.4
2017-11-21T00:20:02.873Z,4.4
2017-11-21T00:25:23.459Z,4.4
2017-11-21T00:30:10.335Z,4.4
2017-11-21T00:35:05.675Z,4.4
2017-11-21T00:40:15.939Z,4.4
2017-11-21T00:45:15.747Z,4.4
2017-11-21T00:55:33.430Z,4.3
2017-11-21T01:00:10.265Z,4.3
2017-11-21T01:05:23.217Z,4.4
2017-11-21T01:10:05.652Z,4.4
2017-11-21T01:15:05.393Z,4.3
2017-11-21T01:20:10.065Z,4.3
2017-11-21T01:25:23.029Z,4.3
2017-11-21T01:35:02.687Z,4.3
2017-11-21T01:40:38.230Z,4.3
2017-11-21T01:45:35.467Z,4.3
2017-11-21T01:50:15.814Z,4.3
2017-11-21T01:55:27.808Z,4
2017-11-21T02:00:05.609Z,4.4
2017-11-21T02:05:15.074Z,4.4
2017-11-21T02:10:05.001Z,4.4
2017-11-21T02:15:05.758Z,4.4
2017-11-21T02:25:08.281Z,4.4
2017-11-21T02:30:10.428Z,4.4
2017-11-21T02:35:03.150Z,4.4
2017-11-21T02:40:31.048Z,4.3
2017-11-21T02:45:05.608Z,4.4
2017-11-21T02:50:05.209Z,4.4
2017-11-21T02:55:30.821Z,4.4
2017-11-21T03:00:02.577Z,4.4
2017-11-21T03:10:05.585Z,4.3
2017-11-21T03:15:05.355Z,4.3
2017-11-21T03:20:20.129Z,4.3
2017-11-21T03:25:05.301Z,4.3
2017-11-21T03:30:05.863Z,4.3
2017-11-21T03:35:02.654Z,4.3
2017-11-21T03:40:02.817Z,4.3
2017-11-21T03:45:10.221Z,4.3
2017-11-21T03:50:05.718Z,4.4
2017-11-21T04:00:10.754Z,4.3
2017-11-21T04:05:17.681Z,4.3
2017-11-21T04:10:02.642Z,4.3
2017-11-21T04:15:09.976Z,4.4
2017-11-21T04:25:32.795Z,4.3
2017-11-21T04:30:15.693Z,4.3
2017-11-21T04:35:03.345Z,4.3
2017-11-21T04:45:28.592Z,4.4
2017-11-21T04:50:05.516Z,4.4
2017-11-21T04:55:10.915Z,4.4
2017-11-21T05:00:28.237Z,4.4
2017-11-21T05:05:10.865Z,4.4
2017-11-21T05:15:23.403Z,4.4
2017-11-21T05:20:02.864Z,4.4
2017-11-21T05:30:20.487Z,4.4
2017-11-21T05:35:13.193Z,4.5
2017-11-21T05:40:03.183Z,4.5
2017-11-21T05:45:10.599Z,4.4
2017-11-21T05:50:20.384Z,4.3
2017-11-21T05:55:10.557Z,4.3
2017-11-21T06:00:20.314Z,4.3
2017-11-21T06:05:15.569Z,4.2
2017-11-21T06:10:23.198Z,4.3
2017-11-21T06:15:05.338Z,4.3
2017-11-21T06:20:02.419Z,4.3
2017-11-21T06:30:08.453Z,4.4
2017-11-21T06:35:15.343Z,4.4
2017-11-21T06:40:23.008Z,4.5
2017-11-21T06:50:23.342Z,4.4
2017-11-21T06:55:07.524Z,4.4
2017-11-21T07:05:33.680Z,3.8
2017-11-21T07:10:10.084Z,4.6
2017-11-21T07:15:31.007Z,4.6
2017-11-21T07:20:05.397Z,4.6
2017-11-21T07:25:10.652Z,4.6
2017-11-21T07:30:02.641Z,4.6
2017-11-21T07:35:10.528Z,4.6
2017-11-21T07:40:20.736Z,4.5
2017-11-21T07:45:05.311Z,4.6
2017-11-21T07:50:13.451Z,4.6
2017-11-21T07:55:02.648Z,4.6
2017-11-21T08:05:02.570Z,4.7
2017-11-21T08:10:17.813Z,4.7
2017-11-21T08:15:17.713Z,4.8
2017-11-21T08:20:03.051Z,4.8
2017-11-21T08:25:27.678Z,4.9
2017-11-21T08:30:03.006Z,4.9
2017-11-21T08:35:10.814Z,4.9
2017-11-21T08:40:25.172Z,4.9
2017-11-21T08:45:20.930Z,5
2017-11-21T08:50:30.562Z,4.8
2017-11-21T08:55:10.684Z,5.1
2017-11-21T09:00:17.855Z,5.2
2017-11-21T09:05:08.164Z,5.2
2017-11-21T09:10:08.330Z,5.2
2017-11-21T09:15:08.137Z,5.3
2017-11-21T09:20:17.914Z,5.4
2017-11-21T09:25:20.843Z,5.4
2017-11-21T09:30:05.275Z,5.5
2017-11-21T09:35:10.694Z,5.5
2017-11-21T09:40:05.799Z,5.5
2017-11-21T09:45:10.726Z,5.6
2017-11-21T09:50:02.771Z,5.6
2017-11-21T09:55:08.265Z,5.5
2017-11-21T10:00:10.407Z,5.5
2017-11-21T10:05:05.805Z,5.5
2017-11-21T10:10:12.552Z,5.5
2017-11-21T10:15:03.292Z,5.5
2017-11-21T10:20:05.578Z,5.6
2017-11-21T10:25:02.362Z,5.6
2017-11-21T10:30:13.139Z,5.7
2017-11-21T10:35:12.562Z,5.7
2017-11-21T10:40:07.626Z,5.7
2017-11-21T10:45:05.028Z,5.8
2017-11-21T10:50:13.391Z,5.8
2017-11-21T10:55:35.516Z,5.9
2017-11-21T11:00:16.017Z,6
2017-11-21T11:05:07.776Z,6.1
2017-11-21T11:10:05.408Z,6.1
2017-11-21T11:15:07.900Z,6.1
2017-11-21T11:20:02.491Z,6.1
2017-11-21T11:25:05.528Z,6.2
2017-11-21T11:30:07.656Z,6.3
2017-11-21T11:35:13.256Z,6.4
2017-11-21T11:40:03.359Z,6.4
2017-11-21T11:45:05.790Z,6.5
2017-11-21T11:50:03.010Z,6.5
2017-11-21T11:55:12.636Z,6.7
2017-11-21T12:05:22.996Z,6.8
2017-11-21T12:10:05.542Z,6.8
2017-11-21T12:15:15.531Z,6.7
2017-11-21T12:20:10.073Z,6.7
2017-11-21T12:30:02.590Z,6.7
2017-11-21T12:35:13.269Z,6.6
2017-11-21T12:45:08.343Z,6.8
2017-11-21T12:50:08.047Z,6.8
2017-11-21T13:00:08.347Z,6.8
2017-11-21T13:05:05.321Z,6.8
2017-11-21T13:10:03.066Z,6.8
2017-11-21T13:15:13.134Z,6.7
2017-11-21T13:20:02.833Z,6.7
2017-11-21T13:25:10.880Z,6.6
2017-11-21T13:30:02.946Z,6.6
2017-11-21T13:35:04.947Z,6.7
2017-11-21T13:40:07.720Z,6.6
2017-11-21T13:45:07.740Z,6.7
2017-11-21T13:50:02.417Z,6.7
2017-11-21T13:55:23.126Z,6.7
2017-11-21T14:00:15.291Z,6.7
2017-11-21T14:05:20.801Z,6.7
2017-11-21T14:10:05.916Z,6.7
2017-11-21T14:15:10.902Z,6.7
2017-11-21T14:20:03.038Z,6.7
2017-11-21T14:25:22.826Z,6.6
2017-11-21T14:30:23.502Z,6.7
2017-11-21T14:35:30.597Z,6.7
2017-11-21T14:40:25.837Z,6.7
2017-11-21T14:45:20.645Z,6.6
2017-11-21T14:50:05.212Z,6.6
2017-11-21T14:55:05.665Z,6.6
2017-11-21T15:00:05.390Z,6.6
2017-11-21T15:05:10.019Z,6.6
2017-11-21T15:10:07.614Z,6.6
2017-11-21T15:15:10.111Z,6.5
2017-11-21T15:20:16.051Z,6.4
2017-11-21T15:25:05.267Z,6.5
2017-11-21T15:30:22.641Z,6.5
2017-11-21T15:35:02.898Z,6.5
2017-11-21T15:40:10.718Z,6.4
2017-11-21T15:45:25.831Z,6.4
2017-11-21T15:50:05.291Z,6.4
2017-11-21T15:55:05.767Z,6.4
2017-11-21T16:05:07.545Z,6.4
2017-11-21T16:10:07.713Z,6.4
2017-11-21T16:15:07.639Z,6.4
2017-11-21T16:20:05.825Z,6.5
2017-11-21T16:25:17.985Z,6.5
2017-11-21T16:30:12.599Z,6.4
2017-11-21T16:35:02.967Z,6.4
2017-11-21T16:40:13.428Z,6.4
2017-11-21T16:45:03.135Z,6.4
2017-11-21T16:55:03.326Z,6.4
2017-11-21T17:00:08.095Z,6.4
2017-11-21T17:05:30.353Z,6.4
2017-11-21T17:10:07.772Z,6.4
2017-11-21T17:15:07.735Z,6.4
2017-11-21T17:20:05.907Z,6.4
2017-11-21T17:25:20.596Z,6.3
2017-11-21T17:30:07.677Z,6.3
2017-11-21T17:35:28.362Z,6.3
2017-11-21T17:40:03.279Z,6.3
2017-11-21T17:45:13.404Z,6.3
2017-11-21T17:50:02.875Z,6.3
2017-11-21T17:55:09.963Z,6.4
2017-11-21T18:00:05.632Z,6.4
2017-11-21T18:05:07.675Z,6.3
2017-11-21T18:20:02.538Z,6.3
2017-11-21T18:25:08.060Z,6.4
2017-11-21T18:30:02.614Z,6.4
2017-11-21T18:35:05.638Z,6.4
2017-11-21T18:40:05.850Z,6.5
2017-11-21T18:45:03.221Z,6.5
2017-11-21T18:50:07.974Z,6.5
2017-11-21T18:55:02.408Z,6.5
2017-11-21T19:05:02.511Z,6.5
2017-11-21T19:10:07.773Z,6.4
2017-11-21T19:15:07.703Z,6.5
2017-11-21T19:20:21.070Z,6.5
2017-11-21T19:25:10.429Z,6.5
2017-11-21T19:30:10.101Z,6.4
2017-11-21T19:35:15.551Z,6.4
2017-11-21T19:40:03.108Z,6.4
2017-11-21T19:45:03.079Z,6.4
2017-11-21T19:50:35.586Z,6.4
2017-11-21T19:55:03.215Z,6.4
2017-11-21T20:00:05.398Z,6.4
2017-11-21T20:05:08.400Z,6.4
2017-11-21T20:10:22.756Z,6.5
2017-11-21T20:15:10.015Z,6.4
2017-11-21T20:25:05.064Z,6.5
2017-11-21T20:30:03.163Z,6.4
2017-11-21T20:35:17.803Z,6.4
2017-11-21T20:40:02.767Z,6.4
2017-11-21T20:45:28.070Z,6.5
2017-11-21T20:50:15.966Z,6.6
2017-11-21T20:55:33.149Z,6.5
2017-11-21T21:00:04.988Z,6.5
2017-11-21T21:05:07.974Z,6.6
2017-11-21T21:15:10.631Z,6.6
2017-11-21T21:20:07.731Z,6.5
2017-11-21T21:25:05.681Z,6.5
2017-11-21T21:30:15.502Z,6.6
2017-11-21T21:35:05.861Z,6.6
2017-11-21T21:40:05.041Z,6.6
2017-11-21T21:45:07.551Z,6.6
2017-11-21T21:50:03.049Z,6.6
2017-11-21T21:55:07.645Z,6.6
2017-11-21T22:00:03.215Z,6.6
2017-11-21T22:05:07.701Z,6.7
2017-11-21T22:10:02.876Z,6.7
2017-11-21T22:15:02.794Z,6.6
2017-11-21T22:20:10.965Z,6.6
2017-11-21T22:25:07.883Z,6.6
2017-11-21T22:35:02.909Z,6.6
2017-11-21T22:40:05.649Z,6.7
2017-11-21T22:45:03.019Z,6.6
2017-11-21T22:50:02.677Z,6.7
2017-11-21T22:55:10.664Z,6.7
2017-11-21T23:00:05.257Z,6.6
2017-11-21T23:05:10.814Z,6.7
2017-11-21T23:15:32.718Z,6.7
2017-11-21T23:20:03.160Z,6.7
2017-11-21T23:25:07.618Z,6.7
2017-11-21T23:30:08.247Z,6.7
2017-11-21T23:35:12.821Z,6.8
2017-11-21T23:40:05.415Z,6.4
2017-11-21T23:45:02.863Z,6.8
2017-11-21T23:50:10.116Z,6.9
2017-11-21T23:55:08.131Z,6.8
